createdAt,value
2017-11-09T00:01:41.425Z,339.00
2017-11-09T00:03:52.020Z,332.13
2017-11-09T00:06:28.615Z,619.63
2017-11-09T00:08:35.279Z,786.70
2017-11-09T00:10:41.531Z,470.00
2017-11-09T00:12:47.637Z,449.83
2017-11-09T00:14:57.482Z,494.43
2017-11-09T00:17:08.443Z,532.17
2017-11-09T00:19:14.805Z,536.63
2017-11-09T00:21:21.821Z,530.63
2017-11-09T00:23:29.982Z,525.20
2017-11-09T00:25:36.873Z,508.73
2017-11-09T00:27:43.368Z,495.00
2017-11-09T00:29:50.787Z,1036.60
2017-11-09T00:31:57.399Z,732.63
2017-11-09T00:34:05.656Z,586.37
2017-11-09T00:36:11.568Z,612.20
2017-11-09T00:38:17.553Z,558.40
2017-11-09T00:40:23.302Z,604.03
2017-11-09T00:42:29.308Z,649.10
2017-11-09T00:44:35.217Z,659.93
2017-11-09T00:46:43.219Z,654.33
2017-11-09T00:48:51.717Z,682.83
2017-11-09T00:50:58.559Z,692.67
2017-11-09T00:53:07.972Z,655.00
2017-11-09T00:55:13.999Z,668.00
2017-11-09T00:57:20.345Z,684.27
2017-11-09T00:59:26.650Z,693.63
2017-11-09T01:01:33.707Z,678.70
2017-11-09T01:03:39.411Z,689.97
2017-11-09T01:05:44.964Z,668.80
2017-11-09T01:07:51.556Z,660.10
2017-11-09T01:09:57.579Z,636.87
2017-11-09T01:12:10.592Z,642.17
2017-11-09T01:14:16.164Z,632.90
2017-11-09T01:16:22.301Z,654.77
2017-11-09T01:18:28.720Z,713.47
2017-11-09T01:20:34.398Z,680.97
2017-11-09T01:22:40.456Z,682.57
2017-11-09T01:24:46.460Z,712.23
2017-11-09T01:26:52.679Z,733.90
2017-11-09T01:28:59.012Z,721.73
2017-11-09T01:31:07.173Z,741.83
2017-11-09T01:33:14.502Z,700.90
2017-11-09T01:35:27.613Z,697.93
2017-11-09T01:37:33.569Z,690.77
2017-11-09T01:39:39.097Z,688.47
2017-11-09T01:41:45.000Z,656.80
2017-11-09T01:43:51.257Z,648.17
2017-11-09T01:45:57.375Z,626.10
2017-11-09T01:48:04.517Z,632.27
2017-11-09T01:50:11.186Z,630.00
2017-11-09T01:52:16.710Z,624.27
2017-11-09T01:54:22.780Z,611.60
2017-11-09T01:56:29.041Z,613.97
2017-11-09T01:58:34.678Z,608.43
2017-11-09T02:00:40.613Z,601.40
2017-11-09T02:02:46.721Z,593.50
2017-11-09T02:04:53.045Z,580.97
2017-11-09T02:06:59.776Z,584.90
2017-11-09T02:09:08.342Z,580.33
2017-11-09T02:11:14.028Z,573.87
2017-11-09T02:13:19.875Z,566.73
2017-11-09T02:15:25.485Z,562.83
2017-11-09T02:17:31.112Z,556.27
2017-11-09T02:19:37.234Z,553.97
2017-11-09T02:21:45.141Z,556.33
2017-11-09T02:23:51.347Z,546.90
2017-11-09T02:25:57.528Z,535.40
2017-11-09T02:28:05.950Z,535.90
2017-11-09T02:30:11.848Z,522.10
2017-11-09T02:32:17.844Z,521.80
2017-11-09T02:34:23.411Z,507.27
2017-11-09T02:36:29.044Z,505.33
2017-11-09T02:38:34.552Z,504.50
2017-11-09T02:40:40.384Z,495.33
2017-11-09T02:42:45.928Z,494.30
2017-11-09T02:44:52.979Z,489.70
2017-11-09T02:46:59.345Z,479.73
2017-11-09T02:49:07.660Z,477.27
2017-11-09T02:51:13.253Z,468.53
2017-11-09T02:53:18.985Z,469.53
2017-11-09T02:55:24.580Z,464.57
2017-11-09T02:57:31.439Z,454.97
2017-11-09T02:59:38.547Z,454.00
2017-11-09T03:01:46.568Z,450.40
2017-11-09T03:03:53.419Z,445.27
2017-11-09T03:05:59.903Z,443.27
2017-11-09T03:08:10.017Z,437.67
2017-11-09T03:10:41.852Z,438.90
2017-11-09T03:12:49.802Z,421.83
2017-11-09T03:14:57.011Z,422.17
2017-11-09T03:17:03.718Z,426.60
2017-11-09T03:19:09.202Z,407.90
2017-11-09T03:21:14.770Z,398.63
2017-11-09T03:23:20.856Z,392.17
2017-11-09T03:25:26.195Z,391.00
2017-11-09T03:27:32.100Z,370.83
2017-11-09T03:29:37.729Z,383.07
2017-11-09T03:31:43.780Z,366.70
2017-11-09T03:33:50.088Z,367.53
2017-11-09T03:35:56.160Z,369.67
2017-11-09T03:38:07.831Z,360.40
2017-11-09T03:40:13.816Z,340.97
2017-11-09T03:42:19.829Z,341.43
2017-11-09T03:44:25.452Z,348.70
2017-11-09T03:46:31.119Z,338.53
2017-11-09T03:48:36.791Z,331.10
2017-11-09T03:50:42.548Z,318.40
2017-11-09T03:52:49.447Z,322.73
2017-11-09T03:54:57.024Z,311.60
2017-11-09T03:57:06.503Z,302.57
2017-11-09T03:59:12.284Z,297.00
2017-11-09T04:01:18.131Z,295.63
2017-11-09T04:03:23.775Z,296.53
2017-11-09T04:05:29.260Z,301.40
2017-11-09T04:07:34.826Z,297.17
2017-11-09T04:09:40.475Z,273.03
2017-11-09T04:11:45.941Z,283.50
2017-11-09T04:13:52.763Z,272.70
2017-11-09T04:16:00.841Z,269.13
2017-11-09T04:18:08.823Z,267.23
2017-11-09T04:20:14.552Z,261.50
2017-11-09T04:22:20.043Z,262.27
2017-11-09T04:24:27.107Z,262.17
2017-11-09T04:26:33.058Z,255.83
2017-11-09T04:28:39.128Z,251.63
2017-11-09T04:30:44.700Z,243.27
2017-11-09T04:32:50.948Z,244.67
2017-11-09T04:34:57.354Z,235.60
2017-11-09T04:37:06.327Z,234.00
2017-11-09T04:39:12.171Z,225.37
2017-11-09T04:41:17.752Z,228.53
2017-11-09T04:43:23.621Z,229.10
2017-11-09T04:45:29.158Z,217.33
2017-11-09T04:47:35.489Z,220.83
2017-11-09T04:49:50.608Z,213.37
2017-11-09T04:51:57.542Z,212.93
2017-11-09T04:54:08.005Z,205.50
2017-11-09T04:56:13.274Z,204.70
2017-11-09T04:58:18.911Z,202.03
2017-11-09T05:00:25.450Z,195.20
2017-11-09T05:02:31.210Z,186.57
2017-11-09T05:04:36.963Z,190.67
2017-11-09T05:06:42.750Z,190.30
2017-11-09T05:08:48.738Z,182.93
2017-11-09T05:10:56.023Z,180.20
2017-11-09T05:13:06.030Z,178.63
2017-11-09T05:15:11.610Z,182.67
2017-11-09T05:17:17.032Z,179.93
2017-11-09T05:19:22.271Z,172.47
2017-11-09T05:21:30.336Z,167.53
2017-11-09T05:23:37.340Z,170.20
2017-11-09T05:25:46.524Z,166.30
2017-11-09T05:27:54.448Z,168.17
2017-11-09T05:30:00.318Z,161.60
2017-11-09T05:32:06.255Z,156.07
2017-11-09T05:34:11.761Z,158.53
2017-11-09T05:36:17.161Z,1213.20
2017-11-09T05:38:22.720Z,563.53
2017-11-09T05:40:28.693Z,1022.43
2017-11-09T05:42:34.195Z,552.27
2017-11-09T05:44:39.949Z,438.43
2017-11-09T05:46:46.102Z,437.67
2017-11-09T05:48:52.276Z,442.87
2017-11-09T05:50:58.423Z,449.20
2017-11-09T05:53:05.913Z,443.07
2017-11-09T05:55:11.733Z,440.20
2017-11-09T05:57:17.508Z,434.93
2017-11-09T05:59:23.638Z,428.90
2017-11-09T06:01:29.794Z,419.17
2017-11-09T06:03:35.503Z,412.13
2017-11-09T06:05:44.310Z,414.03
2017-11-09T06:07:52.238Z,397.50
2017-11-09T06:09:59.656Z,392.67
2017-11-09T06:12:07.076Z,385.43
2017-11-09T06:14:12.713Z,369.60
2017-11-09T06:16:24.386Z,367.67
2017-11-09T06:18:30.243Z,355.23
2017-11-09T06:20:37.062Z,348.80
2017-11-09T06:22:42.631Z,491.77
2017-11-09T06:24:48.718Z,544.60
2017-11-09T06:26:58.845Z,526.27
2017-11-09T06:29:04.590Z,485.27
2017-11-09T06:31:10.182Z,501.73
2017-11-09T06:33:16.218Z,503.60
2017-11-09T06:35:21.988Z,505.37
2017-11-09T06:37:28.226Z,503.73
2017-11-09T06:39:33.765Z,509.17
2017-11-09T06:41:39.485Z,491.70
2017-11-09T06:43:45.159Z,490.90
2017-11-09T06:45:51.849Z,485.13
2017-11-09T06:47:59.674Z,485.40
2017-11-09T06:50:05.375Z,478.43
2017-11-09T06:52:10.777Z,474.37
2017-11-09T06:54:16.091Z,831.57
2017-11-09T06:56:23.217Z,1119.10
2017-11-09T06:58:28.461Z,657.00
2017-11-09T07:00:34.009Z,593.53
2017-11-09T07:02:39.790Z,614.77
2017-11-09T07:04:45.270Z,606.70
2017-11-09T07:06:52.771Z,612.53
2017-11-09T07:08:59.868Z,595.90
2017-11-09T07:11:07.164Z,599.90
2017-11-09T07:13:13.973Z,578.83
2017-11-09T07:15:19.900Z,568.83
2017-11-09T07:17:25.546Z,563.00
2017-11-09T07:19:31.998Z,550.60
2017-11-09T07:21:37.768Z,541.47
2017-11-09T07:23:43.328Z,533.43
2017-11-09T07:25:50.253Z,530.10
2017-11-09T07:27:57.072Z,526.63
2017-11-09T07:30:02.754Z,524.97
2017-11-09T07:32:09.965Z,518.43
2017-11-09T07:34:15.885Z,515.13
2017-11-09T07:36:21.925Z,506.73
2017-11-09T07:38:28.384Z,509.00
2017-11-09T07:40:34.565Z,505.93
2017-11-09T07:42:40.192Z,498.50
2017-11-09T07:44:45.745Z,494.20
2017-11-09T07:46:53.242Z,488.03
2017-11-09T07:49:01.257Z,482.40
2017-11-09T07:51:08.712Z,477.93
2017-11-09T07:53:15.762Z,479.97
2017-11-09T07:55:21.714Z,474.13
2017-11-09T07:57:27.338Z,477.40
2017-11-09T07:59:32.903Z,472.57
2017-11-09T08:01:38.955Z,474.43
2017-11-09T08:03:44.401Z,454.03
2017-11-09T08:05:51.008Z,453.97
2017-11-09T08:07:57.755Z,453.63
2017-11-09T08:10:07.570Z,439.43
2017-11-09T08:12:13.766Z,445.43
2017-11-09T08:14:37.966Z,434.53
2017-11-09T08:16:43.778Z,425.70
2017-11-09T08:18:50.295Z,430.67
2017-11-09T08:20:56.443Z,419.80
2017-11-09T08:23:05.026Z,413.13
2017-11-09T08:25:18.577Z,414.03
2017-11-09T08:27:32.380Z,396.33
2017-11-09T08:29:43.957Z,402.10
2017-11-09T08:31:55.570Z,381.00
2017-11-09T08:34:03.377Z,384.63
2017-11-09T08:36:09.812Z,371.53
2017-11-09T08:38:15.977Z,364.67
2017-11-09T08:40:23.195Z,366.57
2017-11-09T08:42:30.969Z,366.03
2017-11-09T08:44:41.401Z,362.63
2017-11-09T08:46:48.509Z,355.93
2017-11-09T08:48:57.510Z,356.27
2017-11-09T08:51:10.704Z,348.53
2017-11-09T08:53:17.940Z,349.57
2017-11-09T08:55:23.740Z,336.93
2017-11-09T08:57:30.576Z,341.50
2017-11-09T08:59:36.225Z,336.17
2017-11-09T09:01:45.653Z,320.77
2017-11-09T09:03:53.139Z,329.40
2017-11-09T09:05:59.061Z,318.73
2017-11-09T09:08:09.181Z,304.30
2017-11-09T09:10:15.167Z,305.77
2017-11-09T09:12:23.527Z,304.60
2017-11-09T09:14:30.026Z,305.00
2017-11-09T09:16:36.455Z,302.90
2017-11-09T09:18:42.668Z,293.27
2017-11-09T09:20:50.073Z,284.37
2017-11-09T09:22:56.657Z,284.50
2017-11-09T09:25:05.356Z,276.63
2017-11-09T09:27:12.561Z,273.87
2017-11-09T09:29:19.756Z,271.17
2017-11-09T09:31:25.923Z,259.87
2017-11-09T09:33:43.016Z,262.60
2017-11-09T09:35:54.793Z,253.90
2017-11-09T09:38:11.499Z,252.73
2017-11-09T09:40:20.802Z,260.30
2017-11-09T09:42:34.902Z,237.50
2017-11-09T09:44:41.856Z,237.63
2017-11-09T09:46:56.253Z,240.80
2017-11-09T09:49:10.895Z,229.97
2017-11-09T09:53:36.785Z,228.23
2017-11-09T09:55:47.564Z,226.37
2017-11-09T09:57:58.238Z,214.63
2017-11-09T10:00:24.686Z,214.60
2017-11-09T10:02:31.332Z,216.53
2017-11-09T10:04:54.721Z,210.40
2017-11-09T10:07:02.741Z,206.53
2017-11-09T10:09:11.457Z,205.27
2017-11-09T10:11:17.259Z,205.77
2017-11-09T10:13:23.201Z,198.67
2017-11-09T10:15:29.556Z,201.37
2017-11-09T10:17:35.311Z,195.20
2017-11-09T10:19:42.250Z,189.27
2017-11-09T10:21:49.825Z,186.37
2017-11-09T10:24:02.555Z,185.80
2017-11-09T10:26:08.515Z,185.60
2017-11-09T10:28:20.993Z,183.80
2017-11-09T10:30:30.555Z,172.30
2017-11-09T10:32:37.696Z,168.40
2017-11-09T10:34:44.020Z,172.53
2017-11-09T10:36:52.064Z,173.30
2017-11-09T10:38:58.875Z,168.67
2017-11-09T10:41:05.897Z,170.53
2017-11-09T10:43:11.735Z,167.77
2017-11-09T10:45:17.881Z,160.50
2017-11-09T10:47:24.102Z,158.83
2017-11-09T10:49:29.668Z,159.53
2017-11-09T10:51:35.396Z,151.03
2017-11-09T10:53:41.582Z,148.37
2017-11-09T10:55:49.065Z,146.40
2017-11-09T10:58:00.416Z,150.73
2017-11-09T11:00:08.228Z,145.23
2017-11-09T11:02:19.267Z,147.13
2017-11-09T11:04:24.983Z,145.37
2017-11-09T11:06:31.239Z,143.07
2017-11-09T11:08:40.575Z,130.07
2017-11-09T11:10:47.290Z,135.17
2017-11-09T11:12:53.692Z,133.40
2017-11-09T11:15:01.480Z,134.47
2017-11-09T11:17:09.493Z,130.50
2017-11-09T11:19:16.945Z,130.57
2017-11-09T11:21:25.738Z,130.33
2017-11-09T11:23:31.673Z,119.93
2017-11-09T11:25:40.674Z,130.10
2017-11-09T11:27:46.906Z,121.63
2017-11-09T11:29:59.716Z,120.17
2017-11-09T11:32:17.972Z,122.33
2017-11-09T11:34:25.105Z,119.40
2017-11-09T11:36:30.965Z,114.73
2017-11-09T11:38:37.685Z,110.43
2017-11-09T11:40:43.759Z,113.63
2017-11-09T11:42:50.490Z,109.90
2017-11-09T11:44:59.141Z,106.30
2017-11-09T11:47:07.375Z,107.60
2017-11-09T11:49:17.376Z,102.63
2017-11-09T11:51:25.608Z,104.80
2017-11-09T11:53:32.432Z,105.83
2017-11-09T11:55:39.096Z,102.80
2017-11-09T11:57:45.809Z,103.90
2017-11-09T11:59:53.298Z,101.83
2017-11-09T12:01:59.604Z,96.47
2017-11-09T12:04:06.795Z,99.03
2017-11-09T12:06:14.032Z,94.53
2017-11-09T12:08:22.216Z,96.47
2017-11-09T12:10:28.916Z,92.47
2017-11-09T12:12:34.870Z,95.53
2017-11-09T12:14:41.536Z,91.17
2017-11-09T12:16:47.853Z,93.40
2017-11-09T12:18:55.031Z,85.77
2017-11-09T12:21:03.354Z,93.17
2017-11-09T12:23:11.031Z,90.07
2017-11-09T12:25:16.929Z,88.30
2017-11-09T12:27:25.703Z,85.27
2017-11-09T12:29:32.735Z,88.23
2017-11-09T12:31:38.986Z,82.17
2017-11-09T12:33:48.155Z,84.50
2017-11-09T12:35:57.993Z,81.77
2017-11-09T12:38:06.524Z,80.90
2017-11-09T12:40:15.447Z,82.00
2017-11-09T12:42:23.089Z,75.17
2017-11-09T12:44:31.235Z,76.07
2017-11-09T12:46:38.101Z,75.77
2017-11-09T12:48:44.103Z,75.17
2017-11-09T12:50:51.026Z,75.57
2017-11-09T12:52:58.442Z,71.97
2017-11-09T12:55:11.297Z,77.67
2017-11-09T12:57:19.248Z,70.50
2017-11-09T12:59:26.808Z,71.23
2017-11-09T13:01:32.839Z,70.33
2017-11-09T13:03:39.106Z,71.63
2017-11-09T13:05:47.073Z,73.03
2017-11-09T13:07:55.159Z,69.17
2017-11-09T13:10:03.845Z,62.90
2017-11-09T13:12:10.996Z,64.30
2017-11-09T13:14:17.376Z,63.00
2017-11-09T13:16:24.270Z,61.53
2017-11-09T13:18:30.496Z,65.53
2017-11-09T13:20:40.243Z,62.87
2017-11-09T13:22:46.869Z,61.87
2017-11-09T13:24:53.705Z,64.57
2017-11-09T13:27:03.236Z,61.53
2017-11-09T13:29:12.788Z,62.67
2017-11-09T13:31:19.643Z,57.73
2017-11-09T13:33:27.643Z,62.20
2017-11-09T13:35:34.723Z,60.93
2017-11-09T13:37:40.851Z,57.70
2017-11-09T13:39:47.220Z,54.87
2017-11-09T13:41:54.252Z,54.90
2017-11-09T13:44:07.499Z,58.43
2017-11-09T13:46:14.343Z,54.70
2017-11-09T13:48:20.247Z,54.77
2017-11-09T13:50:26.259Z,53.50
2017-11-09T13:52:32.661Z,53.90
2017-11-09T13:54:38.760Z,50.97
2017-11-09T13:56:44.773Z,51.03
2017-11-09T13:58:52.133Z,51.07
2017-11-09T14:00:58.746Z,54.10
2017-11-09T14:03:05.255Z,55.03
2017-11-09T14:05:17.191Z,51.40
2017-11-09T14:07:24.090Z,54.40
2017-11-09T14:09:30.230Z,50.07
2017-11-09T14:11:36.084Z,45.20
2017-11-09T14:13:42.119Z,47.47
2017-11-09T14:15:48.063Z,47.23
2017-11-09T14:17:58.512Z,45.53
2017-11-09T14:20:06.525Z,48.87
2017-11-09T14:22:14.021Z,44.57
2017-11-09T14:24:20.432Z,47.30
2017-11-09T14:26:27.860Z,44.97
2017-11-09T14:28:38.810Z,45.40
2017-11-09T14:30:44.951Z,43.37
2017-11-09T14:32:53.038Z,45.50
2017-11-09T14:35:02.160Z,44.43
2017-11-09T14:37:09.174Z,41.37
2017-11-09T14:39:17.376Z,44.37
2017-11-09T14:41:26.816Z,42.73
2017-11-09T14:43:32.875Z,45.97
2017-11-09T14:45:40.765Z,42.37
2017-11-09T14:47:47.945Z,41.20
2017-11-09T14:52:16.821Z,40.70
2017-11-09T14:54:28.773Z,41.03
2017-11-09T14:56:37.529Z,40.90
2017-11-09T15:01:15.077Z,40.13
2017-11-09T15:03:26.832Z,39.20
2017-11-09T15:05:34.813Z,41.40
2017-11-09T15:07:47.616Z,37.97
2017-11-09T15:10:04.274Z,37.67
2017-11-09T15:12:12.367Z,38.00
2017-11-09T15:14:20.828Z,36.93
2017-11-09T15:16:36.240Z,39.50
2017-11-09T15:18:50.501Z,34.90
2017-11-09T15:21:00.950Z,39.10
2017-11-09T15:23:25.568Z,38.97
2017-11-09T15:25:32.211Z,36.20
2017-11-09T15:27:39.602Z,34.90
2017-11-09T15:29:47.623Z,32.73
2017-11-09T15:31:55.205Z,35.77
2017-11-09T15:34:03.756Z,36.80
2017-11-09T15:36:11.877Z,36.30
2017-11-09T15:38:19.287Z,35.10
2017-11-09T15:40:28.509Z,34.10
2017-11-09T15:42:36.409Z,33.10
2017-11-09T15:44:44.682Z,31.77
2017-11-09T15:46:51.833Z,32.47
2017-11-09T15:49:00.183Z,33.03
2017-11-09T15:51:11.762Z,34.27
2017-11-09T15:53:23.294Z,34.50
2017-11-09T15:55:32.693Z,31.37
2017-11-09T15:57:44.397Z,33.17
2017-11-09T15:59:56.902Z,32.30
2017-11-09T16:02:05.288Z,33.10
2017-11-09T16:04:16.399Z,32.33
2017-11-09T16:06:26.782Z,30.23
2017-11-09T16:08:33.110Z,33.17
2017-11-09T16:10:55.535Z,29.73
2017-11-09T16:13:07.484Z,32.50
2017-11-09T16:15:15.749Z,33.17
2017-11-09T16:17:25.107Z,31.87
2017-11-09T16:19:36.078Z,29.27
2017-11-09T16:21:43.676Z,31.13
2017-11-09T16:23:56.155Z,29.40
2017-11-09T16:26:03.662Z,29.23
2017-11-09T16:28:16.018Z,29.97
2017-11-09T16:30:24.988Z,30.13
2017-11-09T16:32:32.798Z,28.93
2017-11-09T16:34:40.739Z,29.73
2017-11-09T16:36:48.248Z,28.73
2017-11-09T16:39:00.733Z,30.60
2017-11-09T16:41:12.304Z,28.03
2017-11-09T16:43:33.760Z,26.90
2017-11-09T16:56:57.967Z,26.27
2017-11-09T17:05:32.922Z,25.40
2017-11-09T17:07:45.056Z,29.37
2017-11-09T17:09:55.132Z,25.63
2017-11-09T17:12:04.406Z,26.70
2017-11-09T17:14:15.405Z,28.23
2017-11-09T17:16:23.827Z,26.60
2017-11-09T17:18:35.760Z,23.03
2017-11-09T17:20:44.891Z,25.30
2017-11-09T17:22:53.693Z,25.30
2017-11-09T17:25:05.002Z,24.50
2017-11-09T17:27:25.453Z,25.77
2017-11-09T17:29:32.718Z,26.80
2017-11-09T17:31:39.892Z,24.27
2017-11-09T17:33:47.339Z,24.37
2017-11-09T17:35:58.080Z,26.40
2017-11-09T17:38:11.236Z,26.90
2017-11-09T17:40:26.773Z,26.23
2017-11-09T17:43:53.854Z,27.10
2017-11-09T17:46:18.589Z,24.77
2017-11-09T17:48:30.056Z,25.40
2017-11-09T17:50:44.950Z,26.93
2017-11-09T17:55:13.819Z,27.10
2017-11-09T17:57:27.571Z,25.83
2017-11-09T17:59:43.677Z,26.00
2017-11-09T18:01:55.473Z,23.20
2017-11-09T18:04:03.682Z,25.13
2017-11-09T18:06:15.125Z,23.53
2017-11-09T18:08:22.443Z,26.37
2017-11-09T18:10:30.818Z,26.73
2017-11-09T18:12:43.677Z,23.90
2017-11-09T18:14:58.670Z,26.10
2017-11-09T18:17:11.992Z,24.80
2017-11-09T18:19:29.395Z,23.53
2017-11-09T18:21:46.527Z,22.77
2017-11-09T18:24:00.045Z,25.13
2017-11-09T18:26:09.582Z,23.47
2017-11-09T18:28:17.481Z,24.43
2017-11-09T18:30:26.929Z,22.30
2017-11-09T18:32:36.087Z,24.13
2017-11-09T18:34:46.717Z,19.27
2017-11-09T18:36:55.502Z,22.73
2017-11-09T18:39:08.798Z,22.53
2017-11-09T18:41:16.339Z,21.00
2017-11-09T18:43:24.016Z,24.40
2017-11-09T18:45:32.890Z,21.07
2017-11-09T18:47:40.992Z,21.37
2017-11-09T18:49:55.174Z,19.33
2017-11-09T18:52:02.154Z,21.87
2017-11-09T18:54:12.610Z,19.70
2017-11-09T18:56:21.459Z,22.97
2017-11-09T18:58:33.314Z,19.73
2017-11-09T19:01:07.921Z,21.10
2017-11-09T19:05:55.224Z,21.37
2017-11-09T19:10:38.327Z,19.60
2017-11-09T19:17:38.748Z,20.13
2017-11-09T19:19:55.291Z,19.13
2017-11-09T19:22:05.174Z,18.03
2017-11-09T19:24:18.191Z,18.53
2017-11-09T19:26:24.661Z,21.17
2017-11-09T19:28:33.662Z,19.30
2017-11-09T19:30:42.601Z,19.93
2017-11-09T19:32:49.291Z,18.17
2017-11-09T19:34:56.924Z,18.70
2017-11-09T19:37:06.502Z,18.67
2017-11-09T19:39:18.936Z,18.93
2017-11-09T19:41:24.457Z,18.90
2017-11-09T19:43:33.214Z,18.50
2017-11-09T19:45:40.116Z,17.20
2017-11-09T19:47:46.638Z,20.47
2017-11-09T19:49:54.257Z,18.73
2017-11-09T19:52:13.850Z,17.17
2017-11-09T19:54:22.353Z,19.17
2017-11-09T19:56:28.848Z,18.13
2017-11-09T19:58:40.988Z,19.73
2017-11-09T20:00:53.807Z,16.77
2017-11-09T20:03:05.660Z,18.83
2017-11-09T20:05:34.229Z,18.07
2017-11-09T20:07:48.192Z,18.17
2017-11-09T20:10:04.710Z,17.67
2017-11-09T20:12:18.548Z,19.07
2017-11-09T20:14:28.876Z,16.07
2017-11-09T20:16:45.190Z,18.23
2017-11-09T20:19:13.020Z,16.67
2017-11-09T20:21:21.828Z,17.97
2017-11-09T20:23:40.042Z,17.17
2017-11-09T20:30:24.333Z,17.43
2017-11-09T20:41:32.829Z,18.23
2017-11-09T20:46:18.373Z,17.00
2017-11-09T20:51:56.909Z,18.23
2017-11-09T20:54:05.020Z,15.43
2017-11-09T20:56:12.210Z,16.57
2017-11-09T20:58:19.370Z,16.67
2017-11-09T21:00:26.862Z,17.03
2017-11-09T21:02:38.388Z,16.50
2017-11-09T21:04:44.376Z,16.93
2017-11-09T21:06:52.906Z,16.07
2017-11-09T21:09:09.313Z,15.00
2017-11-09T21:11:15.874Z,16.83
2017-11-09T21:13:24.045Z,16.30
2017-11-09T21:15:31.559Z,17.70
2017-11-09T21:17:38.943Z,18.10
2017-11-09T21:19:47.309Z,17.50
2017-11-09T21:21:55.864Z,16.80
2017-11-09T21:24:10.682Z,17.83
2017-11-09T21:26:21.556Z,16.63
2017-11-09T21:28:38.456Z,16.03
2017-11-09T21:30:47.757Z,17.10
2017-11-09T21:35:20.854Z,364.83
2017-11-09T21:37:28.754Z,399.03
2017-11-09T21:39:41.817Z,386.27
2017-11-09T21:41:51.512Z,320.87
2017-11-09T21:44:00.334Z,292.37
2017-11-09T21:46:08.724Z,291.27
2017-11-09T21:48:25.039Z,289.63
2017-11-09T21:50:38.070Z,307.07
2017-11-09T21:52:48.443Z,293.47
2017-11-09T21:54:57.547Z,290.50
2017-11-09T21:57:12.940Z,289.60
2017-11-09T22:05:19.857Z,298.63
2017-11-09T22:07:34.193Z,449.27
2017-11-09T22:09:43.555Z,454.93
2017-11-09T22:12:17.277Z,463.87
2017-11-09T22:14:28.170Z,459.03
2017-11-09T22:16:35.669Z,448.17
2017-11-09T22:18:56.592Z,454.50
2017-11-09T22:21:14.404Z,448.30
2017-11-09T22:23:22.435Z,454.13
2017-11-09T22:25:30.059Z,442.80
2017-11-09T22:27:39.805Z,435.90
2017-11-09T22:32:16.226Z,417.13
2017-11-09T22:34:24.201Z,692.43
2017-11-09T22:37:00.583Z,503.07
2017-11-09T22:41:54.749Z,529.60
2017-11-09T22:50:14.150Z,511.97
2017-11-09T22:52:20.832Z,506.37
2017-11-09T22:54:26.772Z,501.70
2017-11-09T22:56:32.261Z,499.57
2017-11-09T22:58:38.095Z,499.90
2017-11-09T23:00:44.192Z,579.67
2017-11-09T23:02:50.891Z,610.70
2017-11-09T23:05:00.208Z,661.30
2017-11-09T23:07:09.250Z,614.87
2017-11-09T23:14:54.248Z,606.83
2017-11-09T23:17:03.295Z,591.97
2017-11-09T23:19:09.135Z,593.37
2017-11-09T23:21:17.274Z,586.83
2017-11-09T23:23:23.021Z,564.23
2017-11-09T23:27:20.186Z,551.93
2017-11-09T23:32:16.906Z,526.17
2017-11-09T23:34:29.648Z,517.93
2017-11-09T23:36:36.149Z,509.03
2017-11-09T23:38:44.988Z,503.87
2017-11-09T23:40:53.037Z,488.20
2017-11-09T23:43:03.267Z,490.77
2017-11-09T23:45:09.322Z,486.30
2017-11-09T23:47:18.336Z,478.80
2017-11-09T23:49:24.528Z,473.13
2017-11-09T23:51:30.306Z,466.10
2017-11-09T23:53:36.186Z,475.90
2017-11-09T23:55:42.213Z,466.10
2017-11-09T23:57:51.299Z,461.27
2017-11-09T23:59:58.394Z,453.80
